sensor_id;sensor_type;location;lat;lon;timestamp;temperature;humidity
16040;DHT22;8124;48.634;8.120;2023-07-31T00:02:31;20.90;99.90
16040;DHT22;8124;48.634;8.120;2023-07-31T00:07:34;20.80;99.90
16040;DHT22;8124;48.634;8.120;2023-07-31T00:12:41;20.90;99.90
16040;DHT22;8124;48.634;8.120;2023-07-31T00:17:45;20.70;99.90
16040;DHT22;8124;48.634;8.120;2023-07-31T00:22:48;20.60;99.90
16040;DHT22;8124;48.634;8.120;2023-07-31T00:27:52;20.50;99.90
16040;DHT22;8124;48.634;8.120;2023-07-31T00:32:55;20.50;99.90
16040;DHT22;8124;48.634;8.120;2023-07-31T00:37:59;20.60;99.90
16040;DHT22;8124;48.634;8.120;2023-07-31T00:43:03;20.40;99.90
16040;DHT22;8124;48.634;8.120;2023-07-31T00:48:07;20.50;99.90
16040;DHT22;8124;48.634;8.120;2023-07-31T00:53:11;20.40;99.90
16040;DHT22;8124;48.634;8.120;2023-07-31T00:58:15;20.50;99.90
16040;DHT22;8124;48.634;8.120;2023-07-31T01:03:18;20.30;99.90
16040;DHT22;8124;48.634;8.120;2023-07-31T01:08:29;20.40;99.90
16040;DHT22;8124;48.634;8.120;2023-07-31T01:13:35;20.40;99.90
16040;DHT22;8124;48.634;8.120;2023-07-31T01:18:38;20.30;99.90
16040;DHT22;8124;48.634;8.120;2023-07-31T01:23:56;20.30;99.90
16040;DHT22;8124;48.634;8.120;2023-07-31T01:29:10;20.40;99.90
16040;DHT22;8124;48.634;8.120;2023-07-31T01:34:17;20.30;99.90
16040;DHT22;8124;48.634;8.120;2023-07-31T01:39:20;20.30;99.90
16040;DHT22;8124;48.634;8.120;2023-07-31T01:44:25;20.20;99.90
16040;DHT22;8124;48.634;8.120;2023-07-31T01:49:28;20.40;99.90
16040;DHT22;8124;48.634;8.120;2023-07-31T01:54:31;20.40;99.90
16040;DHT22;8124;48.634;8.120;2023-07-31T01:59:36;20.40;99.90
16040;DHT22;8124;48.634;8.120;2023-07-31T02:04:39;20.30;99.90
16040;DHT22;8124;48.634;8.120;2023-07-31T02:09:42;20.30;99.90
16040;DHT22;8124;48.634;8.120;2023-07-31T02:14:47;20.10;99.90
16040;DHT22;8124;48.634;8.120;2023-07-31T02:19:50;20.10;99.90
16040;DHT22;8124;48.634;8.120;2023-07-31T02:24:53;20.20;99.90
16040;DHT22;8124;48.634;8.120;2023-07-31T02:29:58;20.20;99.90
16040;DHT22;8124;48.634;8.120;2023-07-31T02:35:01;20.10;99.90
16040;DHT22;8124;48.634;8.120;2023-07-31T02:40:05;20.10;99.90
16040;DHT22;8124;48.634;8.120;2023-07-31T02:45:10;20.20;99.90
16040;DHT22;8124;48.634;8.120;2023-07-31T02:50:13;20.10;99.90
16040;DHT22;8124;48.634;8.120;2023-07-31T02:55:16;20.00;99.90
16040;DHT22;8124;48.634;8.120;2023-07-31T03:00:20;20.00;99.90
16040;DHT22;8124;48.634;8.120;2023-07-31T03:05:24;20.00;99.90
16040;DHT22;8124;48.634;8.120;2023-07-31T03:10:26;20.10;99.90
16040;DHT22;8124;48.634;8.120;2023-07-31T03:15:31;20.10;99.90
16040;DHT22;8124;48.634;8.120;2023-07-31T03:20:34;20.00;99.90
16040;DHT22;8124;48.634;8.120;2023-07-31T03:25:37;20.10;99.90
16040;DHT22;8124;48.634;8.120;2023-07-31T03:30:41;19.90;99.90
16040;DHT22;8124;48.634;8.120;2023-07-31T03:35:44;19.90;99.90
16040;DHT22;8124;48.634;8.120;2023-07-31T03:40:47;19.80;99.90
16040;DHT22;8124;48.634;8.120;2023-07-31T03:45:52;19.90;99.90
16040;DHT22;8124;48.634;8.120;2023-07-31T03:50:55;19.80;99.90
16040;DHT22;8124;48.634;8.120;2023-07-31T03:55:58;19.70;99.90
16040;DHT22;8124;48.634;8.120;2023-07-31T04:01:03;19.60;99.90
16040;DHT22;8124;48.634;8.120;2023-07-31T04:06:06;19.80;99.90
16040;DHT22;8124;48.634;8.120;2023-07-31T04:11:10;19.80;99.90
16040;DHT22;8124;48.634;8.120;2023-07-31T04:16:14;19.70;99.90
16040;DHT22;8124;48.634;8.120;2023-07-31T04:21:17;19.80;99.90
16040;DHT22;8124;48.634;8.120;2023-07-31T04:26:20;19.80;99.90
16040;DHT22;8124;48.634;8.120;2023-07-31T04:31:24;19.80;99.90
16040;DHT22;8124;48.634;8.120;2023-07-31T04:36:27;19.70;99.90
16040;DHT22;8124;48.634;8.120;2023-07-31T04:41:30;19.80;99.90
16040;DHT22;8124;48.634;8.120;2023-07-31T04:46:35;19.80;99.90
16040;DHT22;8124;48.634;8.120;2023-07-31T04:51:39;19.70;99.90
16040;DHT22;8124;48.634;8.120;2023-07-31T04:56:42;19.80;99.90
16040;DHT22;8124;48.634;8.120;2023-07-31T05:01:47;19.90;99.90
16040;DHT22;8124;48.634;8.120;2023-07-31T05:06:50;19.90;99.90
16040;DHT22;8124;48.634;8.120;2023-07-31T05:11:53;19.90;99.90
16040;DHT22;8124;48.634;8.120;2023-07-31T05:16:57;19.80;99.90
16040;DHT22;8124;48.634;8.120;2023-07-31T05:22:00;19.80;99.90
16040;DHT22;8124;48.634;8.120;2023-07-31T05:27:04;19.80;99.90
16040;DHT22;8124;48.634;8.120;2023-07-31T05:32:09;19.80;99.90
16040;DHT22;8124;48.634;8.120;2023-07-31T05:37:12;19.80;99.90
16040;DHT22;8124;48.634;8.120;2023-07-31T05:42:15;19.90;99.90
16040;DHT22;8124;48.634;8.120;2023-07-31T05:47:19;19.90;99.90
16040;DHT22;8124;48.634;8.120;2023-07-31T05:52:22;19.90;99.90
16040;DHT22;8124;48.634;8.120;2023-07-31T05:57:25;19.90;99.90
16040;DHT22;8124;48.634;8.120;2023-07-31T06:02:30;20.00;99.90
16040;DHT22;8124;48.634;8.120;2023-07-31T06:07:35;20.20;99.90
16040;DHT22;8124;48.634;8.120;2023-07-31T06:12:38;20.20;99.90
16040;DHT22;8124;48.634;8.120;2023-07-31T06:17:42;20.20;99.90
16040;DHT22;8124;48.634;8.120;2023-07-31T06:22:45;20.30;99.90
16040;DHT22;8124;48.634;8.120;2023-07-31T06:27:48;20.30;99.90
16040;DHT22;8124;48.634;8.120;2023-07-31T06:32:52;20.30;99.90
16040;DHT22;8124;48.634;8.120;2023-07-31T06:37:56;20.30;99.90
16040;DHT22;8124;48.634;8.120;2023-07-31T06:42:59;20.30;99.90
16040;DHT22;8124;48.634;8.120;2023-07-31T06:48:09;20.30;99.90
16040;DHT22;8124;48.634;8.120;2023-07-31T06:53:14;20.30;99.90
16040;DHT22;8124;48.634;8.120;2023-07-31T06:58:17;20.50;99.90
16040;DHT22;8124;48.634;8.120;2023-07-31T07:03:21;20.50;99.90
16040;DHT22;8124;48.634;8.120;2023-07-31T07:08:24;20.50;99.90
16040;DHT22;8124;48.634;8.120;2023-07-31T07:13:28;20.60;99.90
16040;DHT22;8124;48.634;8.120;2023-07-31T07:18:32;20.60;99.90
16040;DHT22;8124;48.634;8.120;2023-07-31T07:23:38;20.70;99.90
16040;DHT22;8124;48.634;8.120;2023-07-31T07:28:41;20.90;99.90
16040;DHT22;8124;48.634;8.120;2023-07-31T07:33:46;21.00;99.90
16040;DHT22;8124;48.634;8.120;2023-07-31T07:38:49;21.30;99.90
16040;DHT22;8124;48.634;8.120;2023-07-31T07:43:52;21.40;99.90
16040;DHT22;8124;48.634;8.120;2023-07-31T07:48:56;21.40;99.90
16040;DHT22;8124;48.634;8.120;2023-07-31T07:53:59;21.40;99.90
16040;DHT22;8124;48.634;8.120;2023-07-31T07:59:02;21.30;99.90
16040;DHT22;8124;48.634;8.120;2023-07-31T08:04:07;21.30;99.90
16040;DHT22;8124;48.634;8.120;2023-07-31T08:09:10;21.30;99.90
16040;DHT22;8124;48.634;8.120;2023-07-31T08:14:13;21.60;99.90
16040;DHT22;8124;48.634;8.120;2023-07-31T08:19:17;21.70;99.90
16040;DHT22;8124;48.634;8.120;2023-07-31T08:24:21;21.60;99.90
16040;DHT22;8124;48.634;8.120;2023-07-31T08:29:24;21.70;99.90
16040;DHT22;8124;48.634;8.120;2023-07-31T08:34:29;21.70;99.90
16040;DHT22;8124;48.634;8.120;2023-07-31T08:39:32;21.90;99.90
16040;DHT22;8124;48.634;8.120;2023-07-31T08:44:35;22.10;99.90
16040;DHT22;8124;48.634;8.120;2023-07-31T08:49:42;22.30;99.90
16040;DHT22;8124;48.634;8.120;2023-07-31T08:54:45;22.50;99.90
16040;DHT22;8124;48.634;8.120;2023-07-31T08:59:49;22.50;99.90
16040;DHT22;8124;48.634;8.120;2023-07-31T09:04:54;22.70;99.90
16040;DHT22;8124;48.634;8.120;2023-07-31T09:09:58;22.60;99.90
16040;DHT22;8124;48.634;8.120;2023-07-31T09:15:01;22.60;99.90
16040;DHT22;8124;48.634;8.120;2023-07-31T09:20:15;22.70;99.90
16040;DHT22;8124;48.634;8.120;2023-07-31T09:25:19;22.70;99.90
16040;DHT22;8124;48.634;8.120;2023-07-31T09:30:22;22.90;99.90
16040;DHT22;8124;48.634;8.120;2023-07-31T09:35:30;22.90;99.90
16040;DHT22;8124;48.634;8.120;2023-07-31T09:40:35;23.10;99.90
16040;DHT22;8124;48.634;8.120;2023-07-31T09:45:40;23.30;99.90
16040;DHT22;8124;48.634;8.120;2023-07-31T09:50:46;23.50;99.90
16040;DHT22;8124;48.634;8.120;2023-07-31T09:55:49;23.50;99.90
16040;DHT22;8124;48.634;8.120;2023-07-31T10:00:52;23.60;99.90
16040;DHT22;8124;48.634;8.120;2023-07-31T10:05:57;23.70;99.90
16040;DHT22;8124;48.634;8.120;2023-07-31T10:11:02;24.10;99.90
16040;DHT22;8124;48.634;8.120;2023-07-31T10:16:05;23.90;99.90
16040;DHT22;8124;48.634;8.120;2023-07-31T10:21:10;23.90;99.90
16040;DHT22;8124;48.634;8.120;2023-07-31T10:26:16;23.80;99.90
16040;DHT22;8124;48.634;8.120;2023-07-31T10:31:19;23.60;99.90
16040;DHT22;8124;48.634;8.120;2023-07-31T10:36:25;23.60;99.90
16040;DHT22;8124;48.634;8.120;2023-07-31T10:41:29;23.80;99.90
16040;DHT22;8124;48.634;8.120;2023-07-31T10:46:33;23.80;99.90
16040;DHT22;8124;48.634;8.120;2023-07-31T10:51:40;24.00;99.90
16040;DHT22;8124;48.634;8.120;2023-07-31T10:56:45;23.90;99.90
16040;DHT22;8124;48.634;8.120;2023-07-31T11:01:51;23.80;99.90
16040;DHT22;8124;48.634;8.120;2023-07-31T11:07:00;23.50;99.90
16040;DHT22;8124;48.634;8.120;2023-07-31T11:12:05;23.40;99.90
16040;DHT22;8124;48.634;8.120;2023-07-31T11:17:08;23.50;99.90
16040;DHT22;8124;48.634;8.120;2023-07-31T11:22:13;23.50;99.90
16040;DHT22;8124;48.634;8.120;2023-07-31T11:27:16;23.60;99.90
16040;DHT22;8124;48.634;8.120;2023-07-31T11:32:19;23.70;99.90
16040;DHT22;8124;48.634;8.120;2023-07-31T11:37:24;24.20;99.90
16040;DHT22;8124;48.634;8.120;2023-07-31T11:42:27;24.30;99.90
16040;DHT22;8124;48.634;8.120;2023-07-31T11:47:32;24.30;99.90
16040;DHT22;8124;48.634;8.120;2023-07-31T11:52:40;24.20;99.90
16040;DHT22;8124;48.634;8.120;2023-07-31T11:57:45;24.40;99.90
16040;DHT22;8124;48.634;8.120;2023-07-31T12:02:50;24.20;99.90
16040;DHT22;8124;48.634;8.120;2023-07-31T12:07:55;24.30;99.90
16040;DHT22;8124;48.634;8.120;2023-07-31T12:13:04;24.60;99.90
16040;DHT22;8124;48.634;8.120;2023-07-31T12:18:09;24.90;99.90
16040;DHT22;8124;48.634;8.120;2023-07-31T12:23:15;24.80;99.90
16040;DHT22;8124;48.634;8.120;2023-07-31T12:28:22;25.00;99.90
16040;DHT22;8124;48.634;8.120;2023-07-31T12:33:30;25.10;99.90
16040;DHT22;8124;48.634;8.120;2023-07-31T12:38:35;25.10;99.90
16040;DHT22;8124;48.634;8.120;2023-07-31T12:43:39;24.90;99.90
16040;DHT22;8124;48.634;8.120;2023-07-31T12:48:43;25.00;99.90
16040;DHT22;8124;48.634;8.120;2023-07-31T12:53:47;24.80;99.90
16040;DHT22;8124;48.634;8.120;2023-07-31T12:58:50;24.70;99.90
16040;DHT22;8124;48.634;8.120;2023-07-31T13:03:53;24.50;99.90
16040;DHT22;8124;48.634;8.120;2023-07-31T13:08:58;24.60;99.90
16040;DHT22;8124;48.634;8.120;2023-07-31T13:14:01;24.50;99.90
16040;DHT22;8124;48.634;8.120;2023-07-31T13:19:04;24.50;99.90
16040;DHT22;8124;48.634;8.120;2023-07-31T13:24:08;24.60;99.90
16040;DHT22;8124;48.634;8.120;2023-07-31T13:29:11;24.70;99.90
16040;DHT22;8124;48.634;8.120;2023-07-31T13:34:14;25.00;99.90
16040;DHT22;8124;48.634;8.120;2023-07-31T13:39:19;25.10;99.90
16040;DHT22;8124;48.634;8.120;2023-07-31T13:44:22;25.10;99.90
16040;DHT22;8124;48.634;8.120;2023-07-31T13:49:26;25.10;99.90
16040;DHT22;8124;48.634;8.120;2023-07-31T13:54:30;25.10;99.90
16040;DHT22;8124;48.634;8.120;2023-07-31T13:59:33;25.10;99.90
16040;DHT22;8124;48.634;8.120;2023-07-31T14:04:36;25.20;99.90
16040;DHT22;8124;48.634;8.120;2023-07-31T14:09:40;25.30;99.90
16040;DHT22;8124;48.634;8.120;2023-07-31T14:14:43;25.50;99.90
16040;DHT22;8124;48.634;8.120;2023-07-31T14:19:46;25.40;99.90
16040;DHT22;8124;48.634;8.120;2023-07-31T14:24:51;25.20;99.90
16040;DHT22;8124;48.634;8.120;2023-07-31T14:29:54;25.20;99.90
16040;DHT22;8124;48.634;8.120;2023-07-31T14:34:57;25.10;99.90
16040;DHT22;8124;48.634;8.120;2023-07-31T14:40:02;25.20;99.90
16040;DHT22;8124;48.634;8.120;2023-07-31T14:45:07;25.00;99.90
16040;DHT22;8124;48.634;8.120;2023-07-31T14:50:12;25.00;99.90
16040;DHT22;8124;48.634;8.120;2023-07-31T14:55:17;25.30;99.90
16040;DHT22;8124;48.634;8.120;2023-07-31T15:00:20;25.50;99.90
16040;DHT22;8124;48.634;8.120;2023-07-31T15:05:23;25.60;99.90
16040;DHT22;8124;48.634;8.120;2023-07-31T15:10:28;25.70;99.90
16040;DHT22;8124;48.634;8.120;2023-07-31T15:15:31;25.80;99.90
16040;DHT22;8124;48.634;8.120;2023-07-31T15:20:33;25.80;99.90
16040;DHT22;8124;48.634;8.120;2023-07-31T15:25:38;25.80;99.90
16040;DHT22;8124;48.634;8.120;2023-07-31T15:30:41;26.00;99.90
16040;DHT22;8124;48.634;8.120;2023-07-31T15:35:44;25.90;99.90
16040;DHT22;8124;48.634;8.120;2023-07-31T15:40:50;25.90;99.90
16040;DHT22;8124;48.634;8.120;2023-07-31T15:45:53;25.90;99.90
16040;DHT22;8124;48.634;8.120;2023-07-31T15:50:56;25.70;99.90
16040;DHT22;8124;48.634;8.120;2023-07-31T15:56:00;25.70;99.90
16040;DHT22;8124;48.634;8.120;2023-07-31T16:01:03;25.60;99.90
16040;DHT22;8124;48.634;8.120;2023-07-31T16:06:06;25.50;99.90
16040;DHT22;8124;48.634;8.120;2023-07-31T16:11:11;25.60;99.90
16040;DHT22;8124;48.634;8.120;2023-07-31T16:16:14;25.60;99.90
16040;DHT22;8124;48.634;8.120;2023-07-31T16:21:17;25.60;99.90
16040;DHT22;8124;48.634;8.120;2023-07-31T16:26:21;25.60;99.90
16040;DHT22;8124;48.634;8.120;2023-07-31T16:31:25;25.60;99.90
16040;DHT22;8124;48.634;8.120;2023-07-31T16:36:28;25.60;99.90
16040;DHT22;8124;48.634;8.120;2023-07-31T16:41:32;25.70;99.90
16040;DHT22;8124;48.634;8.120;2023-07-31T16:46:35;25.80;99.90
16040;DHT22;8124;48.634;8.120;2023-07-31T16:51:39;25.70;99.90
16040;DHT22;8124;48.634;8.120;2023-07-31T16:56:44;25.80;99.90
16040;DHT22;8124;48.634;8.120;2023-07-31T17:02:00;25.70;99.90
16040;DHT22;8124;48.634;8.120;2023-07-31T17:07:03;25.70;99.90
16040;DHT22;8124;48.634;8.120;2023-07-31T17:12:08;25.70;99.90
16040;DHT22;8124;48.634;8.120;2023-07-31T17:17:12;25.80;99.90
16040;DHT22;8124;48.634;8.120;2023-07-31T17:22:16;25.80;99.90
16040;DHT22;8124;48.634;8.120;2023-07-31T17:27:21;25.70;99.90
16040;DHT22;8124;48.634;8.120;2023-07-31T17:32:26;25.60;99.90
16040;DHT22;8124;48.634;8.120;2023-07-31T17:37:29;25.30;99.90
16040;DHT22;8124;48.634;8.120;2023-07-31T17:42:34;24.90;99.90
16040;DHT22;8124;48.634;8.120;2023-07-31T17:47:37;24.40;99.90
16040;DHT22;8124;48.634;8.120;2023-07-31T17:52:40;23.90;99.90
16040;DHT22;8124;48.634;8.120;2023-07-31T17:57:44;23.60;99.90
16040;DHT22;8124;48.634;8.120;2023-07-31T18:02:47;23.50;99.90
16040;DHT22;8124;48.634;8.120;2023-07-31T18:07:50;23.40;99.90
16040;DHT22;8124;48.634;8.120;2023-07-31T18:12:55;23.50;99.90
16040;DHT22;8124;48.634;8.120;2023-07-31T18:17:58;23.60;99.90
16040;DHT22;8124;48.634;8.120;2023-07-31T18:23:01;23.50;99.90
16040;DHT22;8124;48.634;8.120;2023-07-31T18:28:05;23.60;99.90
16040;DHT22;8124;48.634;8.120;2023-07-31T18:33:08;23.30;99.90
16040;DHT22;8124;48.634;8.120;2023-07-31T18:38:12;23.20;99.90
16040;DHT22;8124;48.634;8.120;2023-07-31T18:43:16;23.10;99.90
16040;DHT22;8124;48.634;8.120;2023-07-31T18:48:19;23.00;99.90
16040;DHT22;8124;48.634;8.120;2023-07-31T18:53:23;22.90;99.90
16040;DHT22;8124;48.634;8.120;2023-07-31T18:58:27;22.70;99.90
16040;DHT22;8124;48.634;8.120;2023-07-31T19:03:30;22.60;99.90
16040;DHT22;8124;48.634;8.120;2023-07-31T19:08:33;22.50;99.90
16040;DHT22;8124;48.634;8.120;2023-07-31T19:13:38;22.40;99.90
16040;DHT22;8124;48.634;8.120;2023-07-31T19:18:43;22.40;99.90
16040;DHT22;8124;48.634;8.120;2023-07-31T19:23:47;22.20;99.90
16040;DHT22;8124;48.634;8.120;2023-07-31T19:28:51;22.20;99.90
16040;DHT22;8124;48.634;8.120;2023-07-31T19:33:54;22.10;99.90
16040;DHT22;8124;48.634;8.120;2023-07-31T19:38:57;22.10;99.90
16040;DHT22;8124;48.634;8.120;2023-07-31T19:44:01;22.10;99.90
16040;DHT22;8124;48.634;8.120;2023-07-31T19:49:05;22.00;99.90
16040;DHT22;8124;48.634;8.120;2023-07-31T19:54:08;22.00;99.90
16040;DHT22;8124;48.634;8.120;2023-07-31T19:59:12;22.00;99.90
16040;DHT22;8124;48.634;8.120;2023-07-31T20:04:15;21.80;99.90
16040;DHT22;8124;48.634;8.120;2023-07-31T20:09:19;21.80;99.90
16040;DHT22;8124;48.634;8.120;2023-07-31T20:14:24;21.80;99.90
16040;DHT22;8124;48.634;8.120;2023-07-31T20:19:27;21.80;99.90
16040;DHT22;8124;48.634;8.120;2023-07-31T20:24:30;21.90;99.90
16040;DHT22;8124;48.634;8.120;2023-07-31T20:29:35;21.80;99.90
16040;DHT22;8124;48.634;8.120;2023-07-31T20:34:39;21.90;99.90
16040;DHT22;8124;48.634;8.120;2023-07-31T20:39:42;21.80;99.90
16040;DHT22;8124;48.634;8.120;2023-07-31T20:44:47;21.90;99.90
16040;DHT22;8124;48.634;8.120;2023-07-31T20:49:50;21.90;99.90
16040;DHT22;8124;48.634;8.120;2023-07-31T20:54:53;22.00;99.90
16040;DHT22;8124;48.634;8.120;2023-07-31T20:59:57;22.10;99.90
16040;DHT22;8124;48.634;8.120;2023-07-31T21:05:00;22.00;99.90
16040;DHT22;8124;48.634;8.120;2023-07-31T21:10:04;22.10;99.90
16040;DHT22;8124;48.634;8.120;2023-07-31T21:15:13;22.20;99.90
16040;DHT22;8124;48.634;8.120;2023-07-31T21:20:16;22.10;99.90
16040;DHT22;8124;48.634;8.120;2023-07-31T21:25:19;22.30;99.90
16040;DHT22;8124;48.634;8.120;2023-07-31T21:30:24;22.30;99.90
16040;DHT22;8124;48.634;8.120;2023-07-31T21:35:27;22.30;99.90
16040;DHT22;8124;48.634;8.120;2023-07-31T21:40:30;22.50;99.90
16040;DHT22;8124;48.634;8.120;2023-07-31T21:45:34;22.40;99.90
16040;DHT22;8124;48.634;8.120;2023-07-31T21:50:37;22.40;99.90
16040;DHT22;8124;48.634;8.120;2023-07-31T21:55:40;22.50;99.90
16040;DHT22;8124;48.634;8.120;2023-07-31T22:00:44;22.40;99.90
16040;DHT22;8124;48.634;8.120;2023-07-31T22:05:47;22.40;99.90
16040;DHT22;8124;48.634;8.120;2023-07-31T22:10:50;22.30;99.90
16040;DHT22;8124;48.634;8.120;2023-07-31T22:15:55;22.30;99.90
16040;DHT22;8124;48.634;8.120;2023-07-31T22:20:58;22.20;99.90
16040;DHT22;8124;48.634;8.120;2023-07-31T22:26:01;22.10;99.90
16040;DHT22;8124;48.634;8.120;2023-07-31T22:31:05;22.10;99.90
16040;DHT22;8124;48.634;8.120;2023-07-31T22:36:09;22.00;99.90
16040;DHT22;8124;48.634;8.120;2023-07-31T22:41:12;22.10;99.90
16040;DHT22;8124;48.634;8.120;2023-07-31T22:46:17;21.90;99.90
16040;DHT22;8124;48.634;8.120;2023-07-31T22:51:20;21.80;99.90
16040;DHT22;8124;48.634;8.120;2023-07-31T22:56:23;21.70;99.90
16040;DHT22;8124;48.634;8.120;2023-07-31T23:01:27;21.70;99.90
16040;DHT22;8124;48.634;8.120;2023-07-31T23:06:31;21.60;99.90
16040;DHT22;8124;48.634;8.120;2023-07-31T23:11:34;21.70;99.90
16040;DHT22;8124;48.634;8.120;2023-07-31T23:16:38;21.60;99.90
16040;DHT22;8124;48.634;8.120;2023-07-31T23:21:42;21.60;99.90
16040;DHT22;8124;48.634;8.120;2023-07-31T23:26:45;21.60;99.90
16040;DHT22;8124;48.634;8.120;2023-07-31T23:31:49;21.50;99.90
16040;DHT22;8124;48.634;8.120;2023-07-31T23:36:53;21.60;99.90
16040;DHT22;8124;48.634;8.120;2023-07-31T23:41:56;21.70;99.90
16040;DHT22;8124;48.634;8.120;2023-07-31T23:47:00;21.70;99.90
16040;DHT22;8124;48.634;8.120;2023-07-31T23:52:03;21.70;99.90
16040;DHT22;8124;48.634;8.120;2023-07-31T23:57:07;21.80;99.90
